Time;durP1;ratioP1;P1;durP2;ratioP2;P2;SDS_P1;SDS_P2;PMS_P1;PMS_P2;Temp;Humidity;BMP_temperature;BMP_pressure;BME280_temperature;BME280_humidity;BME280_pressure;Samples;Min_cycle;Max_cycle;Signal;HPM_P1;HPM_P2
2023/01/19 00:01:21;;;;;;;7.13;5.80;;;;;;;;;;5090793;28;20047;-86
2023/01/19 00:03:47;;;;;;;7.90;6.25;;;;;;;;;;5107505;28;20126;-86
2023/01/19 00:06:13;;;;;;;7.93;5.90;;;;;;;;;;5101132;28;21490;-86
2023/01/19 00:08:39;;;;;;;7.05;6.00;;;;;;;;;;5089182;28;20122;-86
2023/01/19 00:11:06;;;;;;;5.95;4.80;;;;;;;;;;5091057;28;20043;-86
2023/01/19 00:13:36;;;;;;;4.60;4.20;;;;;;;;;;5097407;28;20416;-87
2023/01/19 00:16:02;;;;;;;5.45;4.10;;;;;;;;;;5092887;28;20046;-85
2023/01/19 00:18:28;;;;;;;5.13;4.57;;;;;;;;;;5109839;28;20074;-84
2023/01/19 00:20:54;;;;;;;4.40;4.00;;;;;;;;;;5094760;27;20822;-87
2023/01/19 00:23:20;;;;;;;4.45;3.53;;;;;;;;;;5108079;27;20044;-87
2023/01/19 00:25:48;;;;;;;3.53;3.22;;;;;;;;;;5110837;27;20046;-86
2023/01/19 00:28:15;;;;;;;3.17;2.88;;;;;;;;;;5096645;27;20054;-86
2023/01/19 00:30:41;;;;;;;3.75;3.38;;;;;;;;;;5111287;27;20047;-87
2023/01/19 00:33:08;;;;;;;3.33;3.03;;;;;;;;;;5104660;27;20055;-87
2023/01/19 00:35:34;;;;;;;3.33;3.03;;;;;;;;;;5112444;27;20142;-86
2023/01/19 00:38:01;;;;;;;3.25;2.97;;;;;;;;;;5112856;27;20120;-86
2023/01/19 00:40:31;;;;;;;3.85;3.55;;;;;;;;;;5106698;28;20535;-86
2023/01/19 00:42:59;;;;;;;3.85;3.55;;;;;;;;;;5092697;27;20127;-86
2023/01/19 00:45:25;;;;;;;4.18;3.78;;;;;;;;;;5093706;27;20049;-86
2023/01/19 00:47:55;;;;;;;3.90;3.08;;;;;;;;;;5093675;27;20445;-86
2023/01/19 00:50:21;;;;;;;3.60;3.30;;;;;;;;;;5109962;27;20078;-87
2023/01/19 00:52:47;;;;;;;3.40;3.10;;;;;;;;;;5113720;27;20047;-87
2023/01/19 00:55:14;;;;;;;2.95;2.75;;;;;;;;;;5101553;28;20520;-86
2023/01/19 00:57:40;;;;;;;2.90;2.70;;;;;;;;;;5113238;27;20504;-86
2023/01/19 01:00:08;;;;;;;3.40;3.10;;;;;;;;;;5083455;27;20449;-86
2023/01/19 01:02:35;;;;;;;3.17;2.88;;;;;;;;;;5110286;27;20047;-86
2023/01/19 01:05:02;;;;;;;2.63;2.42;;;;;;;;;;5113356;27;20212;-87
2023/01/19 01:07:28;;;;;;;2.70;2.50;;;;;;;;;;5102654;28;20111;-86
2023/01/19 01:09:55;;;;;;;2.80;2.60;;;;;;;;;;5080788;28;20051;-87
2023/01/19 01:12:21;;;;;;;2.70;2.50;;;;;;;;;;5110062;27;20039;-86
2023/01/19 01:14:47;;;;;;;3.17;2.88;;;;;;;;;;5103231;27;20035;-86
2023/01/19 01:17:13;;;;;;;3.47;3.15;;;;;;;;;;5111875;27;20051;-87
2023/01/19 01:19:40;;;;;;;4.25;3.85;;;;;;;;;;5095133;27;20083;-86
2023/01/19 01:22:07;;;;;;;3.80;3.50;;;;;;;;;;5096279;27;20087;-86
2023/01/19 01:24:33;;;;;;;4.80;4.18;;;;;;;;;;5112175;27;20051;-86
2023/01/19 01:26:59;;;;;;;4.95;4.47;;;;;;;;;;5092295;27;20079;-86
2023/01/19 01:29:25;;;;;;;5.50;4.80;;;;;;;;;;5093639;27;20150;-86
2023/01/19 01:31:51;;;;;;;7.95;5.80;;;;;;;;;;5104016;28;20058;-87
2023/01/19 01:34:17;;;;;;;6.68;5.97;;;;;;;;;;5095301;27;20043;-86
2023/01/19 01:36:43;;;;;;;6.47;5.78;;;;;;;;;;5110364;27;20522;-87
2023/01/19 01:39:10;;;;;;;7.13;6.43;;;;;;;;;;5112426;27;20070;-86
2023/01/19 01:41:37;;;;;;;6.88;6.18;;;;;;;;;;5111622;27;20413;-87
2023/01/19 01:44:07;;;;;;;8.65;6.43;;;;;;;;;;5113040;27;20434;-87
2023/01/19 01:46:33;;;;;;;10.52;7.38;;;;;;;;;;5095196;27;20062;-87
2023/01/19 01:49:07;;;;;;;7.90;7.10;;;;;;;;;;5094298;27;20050;-87
2023/01/19 01:51:41;;;;;;;7.95;7.15;;;;;;;;;;5110929;27;20609;-86
2023/01/19 01:54:20;;;;;;;10.82;7.50;;;;;;;;;;5112610;27;20386;-86
2023/01/19 01:56:47;;;;;;;9.23;7.22;;;;;;;;;;5111532;27;20039;-87
2023/01/19 01:59:24;;;;;;;8.82;7.68;;;;;;;;;;5112103;27;20082;-86
2023/01/19 02:04:36;;;;;;;9.70;8.70;;;;;;;;;;5110160;27;20051;-86
2023/01/19 02:15:17;;;;;;;11.95;9.25;;;;;;;;;;5111453;27;20458;-87
2023/01/19 02:17:44;;;;;;;11.43;9.85;;;;;;;;;;5109702;27;20035;-86
2023/01/19 02:20:10;;;;;;;11.60;9.75;;;;;;;;;;5111062;27;20059;-87
2023/01/19 02:22:41;;;;;;;12.38;10.50;;;;;;;;;;5093373;27;20493;-86
2023/01/19 02:25:08;;;;;;;12.27;10.40;;;;;;;;;;5092125;27;20047;-86
2023/01/19 02:27:35;;;;;;;12.63;10.32;;;;;;;;;;5105464;27;20051;-87
2023/01/19 02:30:02;;;;;;;13.98;11.15;;;;;;;;;;5102518;27;20047;-86
2023/01/19 02:32:28;;;;;;;14.75;11.75;;;;;;;;;;5092021;27;20055;-86
2023/01/19 02:34:54;;;;;;;14.43;11.95;;;;;;;;;;5110687;27;20572;-87
2023/01/19 02:37:21;;;;;;;16.45;12.43;;;;;;;;;;5090466;28;20039;-86
2023/01/19 02:39:50;;;;;;;15.48;11.88;;;;;;;;;;5092940;28;20371;-87
2023/01/19 02:42:26;;;;;;;16.52;11.73;;;;;;;;;;5098124;28;20117;-86
2023/01/19 02:44:54;;;;;;;16.75;12.95;;;;;;;;;;5108876;28;20051;-86
2023/01/19 02:47:20;;;;;;;14.07;11.77;;;;;;;;;;5091586;27;20055;-87
2023/01/19 02:49:59;;;;;;;16.83;12.05;;;;;;;;;;5106002;28;20087;-86
2023/01/19 02:52:26;;;;;;;15.77;11.93;;;;;;;;;;5106237;27;20593;-86
2023/01/19 02:55:12;;;;;;;15.07;11.98;;;;;;;;;;5108576;27;20457;-86
2023/01/19 02:57:46;;;;;;;16.02;11.45;;;;;;;;;;5108068;27;20385;-86
2023/01/19 03:00:12;;;;;;;17.40;11.98;;;;;;;;;;5107023;27;20068;-86
2023/01/19 03:02:57;;;;;;;18.63;11.30;;;;;;;;;;5108970;27;20044;-86
2023/01/19 03:05:42;;;;;;;12.75;10.70;;;;;;;;;;5092227;27;20117;-86
2023/01/19 03:08:11;;;;;;;15.35;11.43;;;;;;;;;;5092684;28;20036;-86
2023/01/19 03:10:44;;;;;;;13.30;10.57;;;;;;;;;;5089680;27;20051;-86
2023/01/19 03:13:14;;;;;;;12.98;10.45;;;;;;;;;;5109409;27;20176;-85
2023/01/19 03:15:47;;;;;;;14.23;11.25;;;;;;;;;;5099309;28;20056;-86
2023/01/19 03:18:15;;;;;;;12.40;10.30;;;;;;;;;;5098432;27;20058;-87
2023/01/19 03:20:41;;;;;;;13.07;10.98;;;;;;;;;;5092446;27;20078;-87
2023/01/19 03:23:09;;;;;;;12.48;10.75;;;;;;;;;;5093709;27;20954;-85
2023/01/19 03:25:37;;;;;;;14.68;11.18;;;;;;;;;;5108487;27;20092;-87
2023/01/19 03:28:04;;;;;;;13.23;10.93;;;;;;;;;;5104335;27;20058;-86
2023/01/19 03:30:33;;;;;;;13.68;10.90;;;;;;;;;;5108041;27;20066;-87
2023/01/19 03:33:12;;;;;;;11.68;10.27;;;;;;;;;;5108075;27;20177;-87
2023/01/19 03:35:44;;;;;;;11.38;10.18;;;;;;;;;;5109302;27;20455;-87
2023/01/19 03:38:14;;;;;;;11.07;9.40;;;;;;;;;;5110499;27;20047;-86
2023/01/19 03:40:41;;;;;;;11.65;9.27;;;;;;;;;;5108194;27;20043;-86
2023/01/19 03:43:07;;;;;;;11.52;9.55;;;;;;;;;;5106299;27;20497;-86
2023/01/19 03:45:36;;;;;;;11.20;8.88;;;;;;;;;;5110031;28;20039;-87
2023/01/19 03:48:02;;;;;;;10.75;9.60;;;;;;;;;;5108502;27;20200;-86
2023/01/19 03:50:29;;;;;;;9.80;8.57;;;;;;;;;;5109024;28;20075;-86
2023/01/19 03:53:17;;;;;;;11.38;8.93;;;;;;;;;;5089820;28;20102;-88
2023/01/19 03:55:47;;;;;;;9.57;7.75;;;;;;;;;;5098845;28;20047;-86
2023/01/19 03:58:14;;;;;;;9.38;7.93;;;;;;;;;;5097340;28;20397;-86
2023/01/19 04:00:40;;;;;;;8.23;6.78;;;;;;;;;;5107601;28;20081;-86
2023/01/19 04:03:11;;;;;;;8.10;6.53;;;;;;;;;;5110330;28;20074;-87
2023/01/19 04:05:38;;;;;;;7.13;6.05;;;;;;;;;;5108353;28;20043;-86
2023/01/19 04:08:04;;;;;;;6.22;5.60;;;;;;;;;;5096989;28;20055;-86
2023/01/19 04:10:30;;;;;;;6.85;5.57;;;;;;;;;;5091712;28;20142;-86
2023/01/19 04:13:00;;;;;;;7.07;5.80;;;;;;;;;;5088492;28;20109;-86
2023/01/19 04:15:26;;;;;;;6.25;5.65;;;;;;;;;;5088909;28;20040;-86
2023/01/19 04:17:53;;;;;;;5.47;4.97;;;;;;;;;;5107490;28;20039;-86
2023/01/19 04:20:20;;;;;;;6.25;5.20;;;;;;;;;;5078020;28;20505;-86
2023/01/19 04:22:46;;;;;;;5.88;5.28;;;;;;;;;;5090744;28;20743;-87
2023/01/19 04:25:12;;;;;;;5.95;4.97;;;;;;;;;;5109294;28;20055;-86
2023/01/19 04:27:38;;;;;;;6.85;5.20;;;;;;;;;;5108128;28;20086;-86
2023/01/19 04:30:04;;;;;;;5.20;4.70;;;;;;;;;;5090819;28;20596;-87
2023/01/19 04:32:32;;;;;;;6.20;4.65;;;;;;;;;;5104538;28;20071;-86
2023/01/19 04:35:00;;;;;;;6.00;4.57;;;;;;;;;;5093764;28;20039;-87
2023/01/19 04:37:29;;;;;;;6.88;4.68;;;;;;;;;;5087150;28;20486;-86
2023/01/19 04:39:58;;;;;;;5.95;4.68;;;;;;;;;;5092727;28;21259;-86
2023/01/19 04:42:26;;;;;;;5.93;4.63;;;;;;;;;;5109608;28;20051;-86
2023/01/19 04:45:43;;;;;;;;;;;;;;;;;;;;;
2023/01/19 04:48:22;;;;;;;7.22;4.63;;;;;;;;;;5097876;28;20409;-86
2023/01/19 04:50:52;;;;;;;6.18;4.35;;;;;;;;;;5105838;28;20119;-86
2023/01/19 04:54:00;;;;;;;;;;;;;;;;;;;;;
2023/01/19 04:56:29;;;;;;;6.40;4.25;;;;;;;;;;5062298;28;20574;-86
2023/01/19 04:58:55;;;;;;;5.30;4.00;;;;;;;;;;5030160;28;20079;-86
2023/01/19 05:01:21;;;;;;;4.72;3.90;;;;;;;;;;5052692;28;20118;-87
2023/01/19 05:03:47;;;;;;;5.00;4.10;;;;;;;;;;5058716;28;20426;-86
2023/01/19 05:06:13;;;;;;;8.68;4.30;;;;;;;;;;5058264;28;20608;-86
2023/01/19 05:08:39;;;;;;;6.78;3.72;;;;;;;;;;5050442;28;20215;-88
2023/01/19 05:11:06;;;;;;;5.40;4.15;;;;;;;;;;5032919;28;20219;-86
2023/01/19 05:13:32;;;;;;;5.80;3.80;;;;;;;;;;5049920;28;20094;-86
2023/01/19 05:15:58;;;;;;;6.22;4.25;;;;;;;;;;5038795;28;20060;-86
2023/01/19 05:18:24;;;;;;;5.38;3.83;;;;;;;;;;5042863;28;20131;-87
2023/01/19 05:20:50;;;;;;;6.13;3.80;;;;;;;;;;5040935;28;20049;-85
2023/01/19 05:23:16;;;;;;;5.07;3.78;;;;;;;;;;5026897;28;20053;-86
2023/01/19 05:25:43;;;;;;;6.45;3.92;;;;;;;;;;5102681;27;20050;-85
2023/01/19 05:28:09;;;;;;;5.35;4.07;;;;;;;;;;5112135;27;20090;-86
2023/01/19 05:30:35;;;;;;;8.05;3.78;;;;;;;;;;5094680;27;20090;-87
2023/01/19 05:33:02;;;;;;;5.80;3.47;;;;;;;;;;5093425;27;20050;-86
2023/01/19 05:35:28;;;;;;;8.75;4.47;;;;;;;;;;5110496;27;20055;-86
2023/01/19 05:37:54;;;;;;;8.63;3.70;;;;;;;;;;5127604;27;20074;-86
2023/01/19 05:40:20;;;;;;;9.27;3.67;;;;;;;;;;5111471;27;20052;-87
2023/01/19 05:42:46;;;;;;;7.10;3.28;;;;;;;;;;5129485;27;20035;-86
2023/01/19 05:45:12;;;;;;;5.60;3.42;;;;;;;;;;5130345;27;20117;-86
2023/01/19 05:47:38;;;;;;;6.32;3.47;;;;;;;;;;5088212;27;20088;-85
2023/01/19 05:50:05;;;;;;;6.65;2.83;;;;;;;;;;5119598;27;20100;-86
2023/01/19 05:52:31;;;;;;;3.88;1.95;;;;;;;;;;5092362;28;20130;-86
2023/01/19 05:54:57;;;;;;;4.50;2.15;;;;;;;;;;5096704;27;20126;-86
2023/01/19 05:57:23;;;;;;;6.05;2.05;;;;;;;;;;5095724;27;20054;-86
2023/01/19 05:59:49;;;;;;;4.00;1.92;;;;;;;;;;5111328;27;20050;-86
2023/01/19 06:02:15;;;;;;;4.63;1.60;;;;;;;;;;5106806;27;20495;-86
2023/01/19 06:04:41;;;;;;;10.43;1.70;;;;;;;;;;5100646;28;20145;-86
2023/01/19 06:07:07;;;;;;;6.35;1.70;;;;;;;;;;5085239;27;20043;-86
2023/01/19 06:09:33;;;;;;;3.80;1.65;;;;;;;;;;5111804;27;20493;-86
2023/01/19 06:11:59;;;;;;;3.65;1.60;;;;;;;;;;5111232;27;20047;-86
2023/01/19 06:14:26;;;;;;;8.07;1.65;;;;;;;;;;5123586;27;20043;-87
2023/01/19 06:16:55;;;;;;;3.88;1.27;;;;;;;;;;5111529;27;20133;-86
2023/01/19 06:19:21;;;;;;;9.20;1.73;;;;;;;;;;5127447;27;20062;-85
2023/01/19 06:21:50;;;;;;;4.00;1.67;;;;;;;;;;5129174;27;20389;-88
2023/01/19 06:24:16;;;;;;;4.88;1.50;;;;;;;;;;5111597;27;20055;-87
2023/01/19 06:26:45;;;;;;;5.03;1.55;;;;;;;;;;5108386;27;20043;-85
2023/01/19 06:29:11;;;;;;;6.57;1.50;;;;;;;;;;5093585;27;20109;-86
2023/01/19 06:31:37;;;;;;;9.95;2.00;;;;;;;;;;5080087;28;20058;-86
2023/01/19 06:34:03;;;;;;;4.85;1.25;;;;;;;;;;5096870;27;20047;-86
2023/01/19 06:36:29;;;;;;;4.93;1.73;;;;;;;;;;5127594;27;20035;-85
2023/01/19 06:38:55;;;;;;;5.50;1.33;;;;;;;;;;5110545;27;20400;-85
2023/01/19 06:41:21;;;;;;;3.97;1.80;;;;;;;;;;5125582;27;20418;-85
2023/01/19 06:43:47;;;;;;;7.32;1.60;;;;;;;;;;5128673;27;20067;-85
2023/01/19 06:46:13;;;;;;;4.65;1.20;;;;;;;;;;5097374;28;20132;-86
2023/01/19 06:48:40;;;;;;;5.05;1.60;;;;;;;;;;5075530;27;20043;-86
2023/01/19 06:51:06;;;;;;;4.80;1.48;;;;;;;;;;5100560;28;20059;-85
2023/01/19 06:53:32;;;;;;;3.50;1.45;;;;;;;;;;5127330;27;20043;-85
2023/01/19 06:56:01;;;;;;;3.63;1.55;;;;;;;;;;5110680;27;20126;-86
2023/01/19 06:58:28;;;;;;;5.45;1.30;;;;;;;;;;5111498;27;20045;-86
2023/01/19 07:00:55;;;;;;;4.95;1.50;;;;;;;;;;5109406;27;20459;-87
2023/01/19 07:03:24;;;;;;;6.22;1.52;;;;;;;;;;5081062;28;20104;-86
2023/01/19 07:05:53;;;;;;;6.47;1.50;;;;;;;;;;5077746;28;20047;-86
2023/01/19 07:08:19;;;;;;;8.90;2.08;;;;;;;;;;5100516;28;20126;-87
2023/01/19 07:10:45;;;;;;;4.25;1.70;;;;;;;;;;5073483;28;20089;-90
2023/01/19 07:13:11;;;;;;;4.13;1.35;;;;;;;;;;5102267;27;20350;-86
2023/01/19 07:15:37;;;;;;;5.53;1.30;;;;;;;;;;5109958;27;20055;-86
2023/01/19 07:18:08;;;;;;;5.30;1.50;;;;;;;;;;5098133;28;20046;-86
2023/01/19 07:20:34;;;;;;;5.40;1.60;;;;;;;;;;5106348;27;20051;-89
2023/01/19 07:23:00;;;;;;;6.22;1.50;;;;;;;;;;5110970;27;20051;-87
2023/01/19 07:25:26;;;;;;;3.97;1.42;;;;;;;;;;5110087;27;20047;-86
2023/01/19 07:27:56;;;;;;;7.35;1.70;;;;;;;;;;5107936;27;20545;-87
2023/01/19 07:30:22;;;;;;;6.22;1.60;;;;;;;;;;5108683;27;20500;-86
2023/01/19 07:32:48;;;;;;;10.63;2.00;;;;;;;;;;5105109;27;20055;-87
2023/01/19 07:35:14;;;;;;;7.70;2.15;;;;;;;;;;5111508;27;20047;-86
2023/01/19 07:37:40;;;;;;;6.30;1.60;;;;;;;;;;5108829;27;20101;-86
2023/01/19 07:40:06;;;;;;;9.30;1.58;;;;;;;;;;5090239;28;20114;-86
2023/01/19 07:42:32;;;;;;;11.07;1.73;;;;;;;;;;5089691;28;20044;-85
2023/01/19 07:44:59;;;;;;;8.80;1.95;;;;;;;;;;5089162;28;20039;-86
2023/01/19 07:47:25;;;;;;;9.27;2.00;;;;;;;;;;5095627;27;20608;-85
2023/01/19 07:49:57;;;;;;;11.88;2.15;;;;;;;;;;5109347;28;20767;-86
2023/01/19 07:52:23;;;;;;;8.93;2.13;;;;;;;;;;5105293;27;20549;-86
2023/01/19 07:54:49;;;;;;;8.07;1.98;;;;;;;;;;5093125;28;20035;-86
2023/01/19 07:57:16;;;;;;;6.47;2.20;;;;;;;;;;5108534;28;20681;-85
2023/01/19 07:59:42;;;;;;;7.32;1.83;;;;;;;;;;5093173;28;20050;-88
2023/01/19 08:02:09;;;;;;;11.48;2.50;;;;;;;;;;5092909;28;20378;-87
2023/01/19 08:04:35;;;;;;;11.60;3.05;;;;;;;;;;5109219;28;20161;-89
2023/01/19 08:07:02;;;;;;;6.57;2.10;;;;;;;;;;5110914;28;20114;-89
2023/01/19 08:09:28;;;;;;;10.38;2.03;;;;;;;;;;5111642;28;20164;-90
2023/01/19 08:11:54;;;;;;;8.57;1.85;;;;;;;;;;5093047;28;20046;-85
2023/01/19 08:14:20;;;;;;;8.93;1.90;;;;;;;;;;5110899;28;20047;-89
2023/01/19 08:16:47;;;;;;;8.35;1.95;;;;;;;;;;5105090;28;20600;-86
2023/01/19 08:19:13;;;;;;;8.70;1.83;;;;;;;;;;5094405;28;20046;-89
2023/01/19 08:21:39;;;;;;;10.95;1.90;;;;;;;;;;5109506;28;20035;-89
2023/01/19 08:24:06;;;;;;;7.50;1.98;;;;;;;;;;5110120;28;20507;-88
2023/01/19 08:26:33;;;;;;;9.38;1.80;;;;;;;;;;5109788;28;20126;-87
2023/01/19 08:29:03;;;;;;;5.00;2.30;;;;;;;;;;5093002;28;20043;-87
2023/01/19 08:31:29;;;;;;;11.75;1.60;;;;;;;;;;5104435;28;20184;-87
2023/01/19 08:33:56;;;;;;;12.20;2.58;;;;;;;;;;5089054;28;20060;-86
2023/01/19 08:36:23;;;;;;;9.50;2.25;;;;;;;;;;5089952;28;20055;-86
2023/01/19 08:38:49;;;;;;;8.52;2.08;;;;;;;;;;5096269;28;20043;-87
2023/01/19 08:41:16;;;;;;;12.10;2.33;;;;;;;;;;5109817;27;20047;-86
2023/01/19 08:43:44;;;;;;;9.73;2.00;;;;;;;;;;5111941;27;20838;-86
2023/01/19 08:46:10;;;;;;;14.48;2.63;;;;;;;;;;5111589;27;20547;-87
2023/01/19 08:48:36;;;;;;;7.10;2.28;;;;;;;;;;5111410;27;20062;-87
2023/01/19 08:51:02;;;;;;;12.38;2.55;;;;;;;;;;5111760;27;20051;-86
2023/01/19 08:53:28;;;;;;;11.73;2.72;;;;;;;;;;5110424;27;20043;-85
2023/01/19 08:55:56;;;;;;;10.52;2.42;;;;;;;;;;5098509;27;20392;-85
2023/01/19 08:58:22;;;;;;;10.63;2.67;;;;;;;;;;5111018;27;20457;-86
2023/01/19 09:00:51;;;;;;;11.55;2.95;;;;;;;;;;5113687;27;20054;-86
2023/01/19 09:03:18;;;;;;;12.32;2.35;;;;;;;;;;5095020;28;20051;-87
2023/01/19 09:05:44;;;;;;;13.80;2.40;;;;;;;;;;5092642;28;20050;-87
2023/01/19 09:08:13;;;;;;;16.55;3.05;;;;;;;;;;5108825;27;20047;-87
2023/01/19 09:10:44;;;;;;;11.43;2.42;;;;;;;;;;5106851;27;20043;-88
2023/01/19 09:13:13;;;;;;;9.90;2.50;;;;;;;;;;5112461;27;20767;-88
2023/01/19 09:15:40;;;;;;;17.35;3.05;;;;;;;;;;5095258;28;20043;-86
2023/01/19 09:18:09;;;;;;;18.88;2.63;;;;;;;;;;5130654;27;20043;-86
2023/01/19 09:20:37;;;;;;;11.82;2.63;;;;;;;;;;5094723;27;20047;-86
2023/01/19 09:23:05;;;;;;;11.65;2.67;;;;;;;;;;5113255;27;20078;-87
2023/01/19 09:25:31;;;;;;;9.95;2.15;;;;;;;;;;5131856;27;20050;-86
2023/01/19 09:27:59;;;;;;;11.25;2.50;;;;;;;;;;5104340;27;20046;-86
2023/01/19 09:30:26;;;;;;;13.68;2.95;;;;;;;;;;5111785;27;20147;-85
2023/01/19 09:32:52;;;;;;;12.60;2.53;;;;;;;;;;5108264;27;20050;-86
2023/01/19 09:35:18;;;;;;;10.02;2.95;;;;;;;;;;5131434;27;20078;-86
2023/01/19 09:37:47;;;;;;;6.75;2.22;;;;;;;;;;5094402;27;20046;-86
2023/01/19 09:40:16;;;;;;;7.95;2.28;;;;;;;;;;5091555;27;20047;-87
2023/01/19 09:42:43;;;;;;;9.70;2.45;;;;;;;;;;5109455;27;20047;-87
2023/01/19 09:45:32;;;;;;;8.85;2.40;;;;;;;;;;5102754;28;20057;-86
2023/01/19 09:47:59;;;;;;;7.25;2.13;;;;;;;;;;5087692;27;20075;-88
2023/01/19 09:50:31;;;;;;;12.82;2.88;;;;;;;;;;5103737;28;20083;-88
2023/01/19 09:53:01;;;;;;;8.88;1.80;;;;;;;;;;5092655;28;20130;-87
2023/01/19 09:55:27;;;;;;;10.55;2.63;;;;;;;;;;5088697;27;20044;-88
2023/01/19 09:57:54;;;;;;;13.07;2.85;;;;;;;;;;5112764;27;20043;-87
2023/01/19 10:00:22;;;;;;;12.70;2.35;;;;;;;;;;5094458;27;20035;-88
2023/01/19 10:02:48;;;;;;;10.70;2.85;;;;;;;;;;5107899;28;20074;-87
2023/01/19 10:05:23;;;;;;;10.25;2.10;;;;;;;;;;5097944;27;20048;-90
2023/01/19 10:08:02;;;;;;;11.10;2.40;;;;;;;;;;5108561;27;20035;-88
2023/01/19 10:10:29;;;;;;;8.30;2.20;;;;;;;;;;5087655;27;20137;-88
2023/01/19 10:13:14;;;;;;;10.65;2.17;;;;;;;;;;5112253;27;20050;-87
2023/01/19 10:15:46;;;;;;;9.05;1.98;;;;;;;;;;5113093;27;20159;-87
2023/01/19 10:18:16;;;;;;;13.07;2.40;;;;;;;;;;5108746;27;20051;-87
2023/01/19 10:20:44;;;;;;;7.60;2.03;;;;;;;;;;5112265;27;20070;-86
2023/01/19 10:23:21;;;;;;;12.40;2.20;;;;;;;;;;5113540;27;20055;-88
2023/01/19 10:25:47;;;;;;;13.02;2.80;;;;;;;;;;5096275;27;20096;-87
2023/01/19 10:28:13;;;;;;;8.48;2.25;;;;;;;;;;5095904;27;20039;-88
2023/01/19 10:30:41;;;;;;;13.35;2.33;;;;;;;;;;5112521;27;20073;-88
2023/01/19 10:33:10;;;;;;;11.48;2.22;;;;;;;;;;5107428;28;20127;-87
2023/01/19 10:35:36;;;;;;;9.68;2.10;;;;;;;;;;5092433;28;20052;-87
2023/01/19 10:38:05;;;;;;;7.32;1.90;;;;;;;;;;5094324;28;20046;-88
2023/01/19 10:40:31;;;;;;;13.88;2.30;;;;;;;;;;5092589;28;20058;-89
2023/01/19 10:42:57;;;;;;;12.40;2.17;;;;;;;;;;5078389;27;20055;-88
2023/01/19 10:45:24;;;;;;;6.35;1.67;;;;;;;;;;5104562;28;20166;-88
2023/01/19 10:48:02;;;;;;;;;;;;;;;;;;;;;
2023/01/19 10:50:40;;;;;;;13.48;2.40;;;;;;;;;;5098206;27;20441;-89
2023/01/19 10:53:35;;;;;;;6.82;2.13;;;;;;;;;;5089228;27;20053;-88
2023/01/19 10:56:32;;;;;;;10.43;2.47;;;;;;;;;;5129859;27;20065;-87
2023/01/19 10:59:30;;;;;;;10.43;1.58;;;;;;;;;;5113279;27;20055;-88
2023/01/19 11:02:29;;;;;;;10.77;2.10;;;;;;;;;;5111448;27;20137;-87
2023/01/19 11:05:24;;;;;;;9.55;1.88;;;;;;;;;;5092585;27;20055;-88
2023/01/19 11:08:20;;;;;;;5.68;1.50;;;;;;;;;;5086027;27;20150;-87
2023/01/19 11:11:13;;;;;;;;;;;;;;;;;;;;;
2023/01/19 11:14:21;;;;;;;;;;;;;;;;;;;;;
2023/01/19 11:16:55;;;;;;;8.10;1.58;;;;;;;;;;5066811;27;20059;-88
2023/01/19 11:19:24;;;;;;;7.10;1.95;;;;;;;;;;5129135;27;20054;-89
2023/01/19 11:21:54;;;;;;;6.22;1.48;;;;;;;;;;5107769;27;20042;-87
2023/01/19 11:24:20;;;;;;;12.25;1.95;;;;;;;;;;5109868;27;20425;-91
2023/01/19 11:27:01;;;;;;;7.55;1.50;;;;;;;;;;5111050;27;20035;-88
2023/01/19 11:29:28;;;;;;;7.35;1.70;;;;;;;;;;5103817;27;20043;-88
2023/01/19 11:31:56;;;;;;;6.75;1.48;;;;;;;;;;5093967;28;20142;-87
2023/01/19 11:34:30;;;;;;;6.72;1.40;;;;;;;;;;5100342;28;20158;-88
2023/01/19 11:36:59;;;;;;;10.88;1.48;;;;;;;;;;5094494;27;20095;-88
2023/01/19 11:39:28;;;;;;;10.80;1.63;;;;;;;;;;5093362;27;20054;-87
2023/01/19 11:41:56;;;;;;;7.82;1.90;;;;;;;;;;5092871;27;20050;-89
2023/01/19 11:44:36;;;;;;;5.82;1.30;;;;;;;;;;5087174;27;20169;-89
2023/01/19 11:47:03;;;;;;;10.02;1.52;;;;;;;;;;5094749;28;20046;-87
2023/01/19 11:49:41;;;;;;;7.35;1.42;;;5.80;99.90;;;;;;5094125;28;20235;-86
2023/01/19 11:52:38;;;;;;;8.48;1.50;;;5.80;99.90;;;;;;5096008;27;20043;-87
2023/01/19 11:55:34;;;;;;;7.10;1.50;;;5.30;99.90;;;;;;5091136;28;20130;-89
2023/01/19 11:58:02;;;;;;;6.35;1.48;;;5.90;99.90;;;;;;5103977;28;20058;-89
2023/01/19 12:00:39;;;;;;;8.32;1.35;;;5.90;99.90;;;;;;5090419;28;20047;-89
2023/01/19 12:03:29;;;;;;;8.52;1.40;;;5.90;99.90;;;;;;5085984;28;20122;-89
2023/01/19 12:06:00;;;;;;;5.57;0.80;;;5.90;99.90;;;;;;5110281;28;20130;-87
2023/01/19 12:08:38;;;;;;;7.20;1.13;;;5.90;99.90;;;;;;5111002;28;20047;-88
2023/01/19 12:11:05;;;;;;;5.50;1.23;;;6.00;99.90;;;;;;5093260;28;20065;-89
2023/01/19 12:13:34;;;;;;;10.38;1.60;;;5.50;99.90;;;;;;5080246;28;20141;-88
2023/01/19 12:16:21;;;;;;;5.88;1.40;;;6.00;99.90;;;;;;5100098;27;20051;-91
2023/01/19 12:18:58;;;;;;;7.40;1.20;;;6.10;99.90;;;;;;5092029;28;20038;-90
2023/01/19 12:21:24;;;;;;;10.25;1.48;;;6.10;99.90;;;;;;5096023;28;20046;-91
2023/01/19 12:24:32;;;;;;;4.95;1.70;;;6.50;99.90;;;;;;5077628;28;20410;-94
2023/01/19 12:27:25;;;;;;;6.95;1.40;;;5.80;99.90;;;;;;5070301;28;20055;-92
2023/01/19 12:29:53;;;;;;;6.43;1.40;;;5.60;99.90;;;;;;5076895;28;20063;-88
2023/01/19 12:32:32;;;;;;;4.88;1.23;;;5.40;99.90;;;;;;5112139;27;20059;-88
2023/01/19 12:34:58;;;;;;;3.75;1.05;;;5.30;99.90;;;;;;5094434;27;20134;-87
2023/01/19 12:37:29;;;;;;;6.72;1.23;;;5.20;99.90;;;;;;5112895;27;20827;-86
2023/01/19 12:40:25;;;;;;;8.77;1.17;;;5.30;99.90;;;;;;5113775;27;20043;-87
2023/01/19 12:43:04;;;;;;;7.13;1.52;;;5.10;99.90;;;;;;5106112;28;20333;-88
2023/01/19 12:45:32;;;;;;;5.03;1.00;;;5.00;99.90;;;;;;5092359;28;20043;-88
2023/01/19 12:47:58;;;;;;;6.53;1.23;;;4.90;99.90;;;;;;5075955;28;20182;-88
2023/01/19 12:50:24;;;;;;;6.10;1.30;;;5.70;99.90;;;;;;5099076;27;20454;-88
2023/01/19 12:52:56;;;;;;;7.78;1.20;;;5.30;99.90;;;;;;5114490;27;20404;-89
2023/01/19 12:55:29;;;;;;;5.57;1.45;;;5.00;99.90;;;;;;5096947;27;20129;-88
2023/01/19 12:58:20;;;;;;;5.35;1.23;;;5.00;99.90;;;;;;5103347;28;20052;-91
2023/01/19 13:00:47;;;;;;;11.00;1.00;;;5.00;99.90;;;;;;5077549;28;20084;-88
2023/01/19 13:03:16;;;;;;;5.07;1.00;;;5.00;99.90;;;;;;5093460;27;20039;-89
2023/01/19 13:05:42;;;;;;;8.90;1.70;;;5.00;99.90;;;;;;5097883;27;20481;-88
2023/01/19 13:08:07;;;;;;;6.03;1.10;;;5.10;99.90;;;;;;5093621;27;20050;-88
2023/01/19 13:10:58;;;;;;;5.95;1.35;;;5.10;99.90;;;;;;5088692;28;20144;-88
2023/01/19 13:13:36;;;;;;;5.78;1.02;;;5.10;99.90;;;;;;5110870;28;20521;-89
2023/01/19 13:16:17;;;;;;;6.47;1.38;;;5.30;99.90;;;;;;5093471;28;20036;-89
2023/01/19 13:18:58;;;;;;;4.50;1.00;;;5.30;99.90;;;;;;5111128;28;20058;-88
2023/01/19 13:21:42;;;;;;;4.65;1.38;;;5.50;99.90;;;;;;5077253;28;20489;-89
2023/01/19 13:24:11;;;;;;;3.65;1.35;;;5.60;99.90;;;;;;5086076;27;20109;-89
2023/01/19 13:26:51;;;;;;;3.72;1.00;;;5.60;99.90;;;;;;5086811;27;20035;-89
2023/01/19 13:29:34;;;;;;;2.05;0.93;;;7.30;99.90;;;;;;5097198;27;20131;-90
2023/01/19 13:32:18;;;;;;;3.45;1.00;;;5.50;99.90;;;;;;5111547;28;20060;-89
2023/01/19 13:34:48;;;;;;;3.53;1.10;;;6.10;99.90;;;;;;5095361;28;20048;-91
2023/01/19 13:37:22;;;;;;;4.45;1.40;;;5.40;99.90;;;;;;5093096;28;20039;-90
2023/01/19 13:39:50;;;;;;;6.15;1.25;;;5.90;99.90;;;;;;5111729;28;20043;-93
2023/01/19 13:42:32;;;;;;;7.20;1.88;;;5.50;99.90;;;;;;5111307;28;20116;-90
2023/01/19 13:45:01;;;;;;;5.57;1.63;;;5.70;99.90;;;;;;5112029;28;20066;-89
2023/01/19 13:47:43;;;;;;;6.28;1.27;;;5.30;99.90;;;;;;5093868;28;20095;-91
2023/01/19 13:50:22;;;;;;;12.80;1.50;;;5.40;99.90;;;;;;5091124;28;20050;-89
2023/01/19 13:52:50;;;;;;;6.80;0.98;;;5.70;99.90;;;;;;5073521;28;20126;-90
2023/01/19 13:55:17;;;;;;;5.60;1.17;;;5.90;99.90;;;;;;5073804;28;20052;-89
2023/01/19 13:57:44;;;;;;;5.97;1.10;;;6.00;99.90;;;;;;5073525;28;20047;-90
2023/01/19 14:00:15;;;;;;;7.28;1.23;;;5.10;99.90;;;;;;5072530;28;20089;-91
2023/01/19 14:02:55;;;;;;;4.28;1.27;;;5.50;99.90;;;;;;5073264;28;20541;-90
2023/01/19 14:05:34;;;;;;;6.32;1.48;;;5.30;99.90;;;;;;5091204;28;20044;-90
2023/01/19 14:08:14;;;;;;;3.63;1.20;;;5.00;99.90;;;;;;5090559;28;20055;-90
2023/01/19 14:10:44;;;;;;;5.28;1.48;;;5.50;99.90;;;;;;5074011;28;20069;-90
2023/01/19 14:13:19;;;;;;;5.07;1.63;;;4.90;99.90;;;;;;5082357;28;20166;-89
2023/01/19 14:15:47;;;;;;;2.42;0.90;;;5.00;99.90;;;;;;5093929;28;20089;-89
2023/01/19 14:18:13;;;;;;;2.45;0.90;;;4.80;99.90;;;;;;5093439;28;20046;-90
2023/01/19 14:20:39;;;;;;;2.70;1.27;;;5.00;99.90;;;;;;5093694;28;20040;-90
2023/01/19 14:23:26;;;;;;;4.03;1.15;;;4.70;99.90;;;;;;5091801;28;20043;-90
2023/01/19 14:25:51;;;;;;;5.15;1.30;;;4.80;99.90;;;;;;5090088;28;20048;-90
2023/01/19 14:28:39;;;;;;;5.75;1.10;;;4.80;99.90;;;;;;5098973;28;20044;-89
2023/01/19 14:31:22;;;;;;;4.28;1.00;;;5.20;99.90;;;;;;5093202;28;20189;-91
2023/01/19 14:33:51;;;;;;;3.80;1.17;;;6.60;99.90;;;;;;5110393;28;20124;-90
2023/01/19 14:36:37;;;;;;;4.30;1.40;;;5.00;99.90;;;;;;5093103;28;20036;-91
2023/01/19 14:39:05;;;;;;;3.65;1.00;;;5.00;99.90;;;;;;5092557;28;20126;-91
2023/01/19 14:41:46;;;;;;;4.30;1.20;;;4.30;99.90;;;;;;5110189;28;20448;-91
2023/01/19 14:44:29;;;;;;;4.63;1.60;;;4.90;99.90;;;;;;5103794;28;20114;-89
2023/01/19 14:46:56;;;;;;;8.43;1.30;;;4.80;99.90;;;;;;5110715;28;20043;-90
2023/01/19 14:49:40;;;;;;;2.92;1.10;;;4.60;99.90;;;;;;5109237;28;20055;-88